sensor_id;sensor_type;location;lat;lon;timestamp;temperature;humidity
12166;DHT22;6146;48.128;11.476;2022-08-03T00:01:06;18.20;99.90
12166;DHT22;6146;48.128;11.476;2022-08-03T00:03:32;18.20;99.90
12166;DHT22;6146;48.128;11.476;2022-08-03T00:05:57;18.20;99.90
12166;DHT22;6146;48.128;11.476;2022-08-03T00:08:23;18.20;99.90
12166;DHT22;6146;48.128;11.476;2022-08-03T00:10:49;18.10;99.90
12166;DHT22;6146;48.128;11.476;2022-08-03T00:13:14;18.10;99.90
12166;DHT22;6146;48.128;11.476;2022-08-03T00:15:41;18.20;99.90
12166;DHT22;6146;48.128;11.476;2022-08-03T00:18:08;18.10;99.90
12166;DHT22;6146;48.128;11.476;2022-08-03T00:20:33;18.10;99.90
12166;DHT22;6146;48.128;11.476;2022-08-03T00:22:59;18.10;99.90
12166;DHT22;6146;48.128;11.476;2022-08-03T00:25:25;18.00;99.90
12166;DHT22;6146;48.128;11.476;2022-08-03T00:27:51;18.00;99.90
12166;DHT22;6146;48.128;11.476;2022-08-03T00:30:17;18.00;99.90
12166;DHT22;6146;48.128;11.476;2022-08-03T00:32:42;18.00;99.90
12166;DHT22;6146;48.128;11.476;2022-08-03T00:35:08;18.00;99.90
12166;DHT22;6146;48.128;11.476;2022-08-03T00:37:34;18.00;99.90
12166;DHT22;6146;48.128;11.476;2022-08-03T00:39:59;18.00;99.90
12166;DHT22;6146;48.128;11.476;2022-08-03T00:42:25;18.00;99.90
12166;DHT22;6146;48.128;11.476;2022-08-03T00:44:50;17.90;99.90
12166;DHT22;6146;48.128;11.476;2022-08-03T00:47:16;17.90;99.90
12166;DHT22;6146;48.128;11.476;2022-08-03T00:49:42;17.90;99.90
12166;DHT22;6146;48.128;11.476;2022-08-03T00:52:08;17.80;99.90
12166;DHT22;6146;48.128;11.476;2022-08-03T00:54:36;17.80;99.90
12166;DHT22;6146;48.128;11.476;2022-08-03T00:57:02;17.80;99.90
12166;DHT22;6146;48.128;11.476;2022-08-03T00:59:28;17.90;99.90
12166;DHT22;6146;48.128;11.476;2022-08-03T01:01:55;17.80;99.90
12166;DHT22;6146;48.128;11.476;2022-08-03T01:04:20;17.80;99.90
12166;DHT22;6146;48.128;11.476;2022-08-03T01:06:58;17.80;99.90
12166;DHT22;6146;48.128;11.476;2022-08-03T01:13:04;17.80;99.90
12166;DHT22;6146;48.128;11.476;2022-08-03T01:15:43;17.70;99.90
12166;DHT22;6146;48.128;11.476;2022-08-03T01:18:16;17.70;99.90
12166;DHT22;6146;48.128;11.476;2022-08-03T01:20:47;17.70;99.90
12166;DHT22;6146;48.128;11.476;2022-08-03T01:26:22;17.70;99.90
12166;DHT22;6146;48.128;11.476;2022-08-03T01:29:19;17.70;99.90
12166;DHT22;6146;48.128;11.476;2022-08-03T01:31:54;17.70;99.90
12166;DHT22;6146;48.128;11.476;2022-08-03T01:34:27;17.70;99.90
12166;DHT22;6146;48.128;11.476;2022-08-03T01:36:56;17.70;99.90
12166;DHT22;6146;48.128;11.476;2022-08-03T01:39:25;17.60;99.90
12166;DHT22;6146;48.128;11.476;2022-08-03T01:41:58;17.60;99.90
12166;DHT22;6146;48.128;11.476;2022-08-03T01:44:29;17.60;99.90
12166;DHT22;6146;48.128;11.476;2022-08-03T01:47:01;17.50;99.90
12166;DHT22;6146;48.128;11.476;2022-08-03T01:49:34;17.60;99.90
12166;DHT22;6146;48.128;11.476;2022-08-03T01:52:02;17.50;99.90
12166;DHT22;6146;48.128;11.476;2022-08-03T01:54:29;17.50;99.90
12166;DHT22;6146;48.128;11.476;2022-08-03T01:56:56;17.40;99.90
12166;DHT22;6146;48.128;11.476;2022-08-03T01:59:24;17.40;99.90
12166;DHT22;6146;48.128;11.476;2022-08-03T02:01:51;17.30;99.90
12166;DHT22;6146;48.128;11.476;2022-08-03T02:04:19;17.30;99.90
12166;DHT22;6146;48.128;11.476;2022-08-03T02:06:47;17.20;99.90
12166;DHT22;6146;48.128;11.476;2022-08-03T02:09:14;17.10;99.90
12166;DHT22;6146;48.128;11.476;2022-08-03T02:11:41;17.10;99.90
12166;DHT22;6146;48.128;11.476;2022-08-03T02:14:08;17.00;99.90
12166;DHT22;6146;48.128;11.476;2022-08-03T02:16:35;17.10;99.90
12166;DHT22;6146;48.128;11.476;2022-08-03T02:19:03;17.00;99.90
12166;DHT22;6146;48.128;11.476;2022-08-03T02:21:31;17.00;99.90
12166;DHT22;6146;48.128;11.476;2022-08-03T02:23:57;17.10;99.90
12166;DHT22;6146;48.128;11.476;2022-08-03T02:26:25;17.00;99.90
12166;DHT22;6146;48.128;11.476;2022-08-03T02:28:55;17.00;99.90
12166;DHT22;6146;48.128;11.476;2022-08-03T02:31:27;16.90;99.90
12166;DHT22;6146;48.128;11.476;2022-08-03T02:34:00;16.80;99.90
12166;DHT22;6146;48.128;11.476;2022-08-03T02:36:31;16.80;99.90
12166;DHT22;6146;48.128;11.476;2022-08-03T02:39:00;16.70;99.90
12166;DHT22;6146;48.128;11.476;2022-08-03T02:41:31;16.80;99.90
12166;DHT22;6146;48.128;11.476;2022-08-03T02:43:59;16.70;99.90
12166;DHT22;6146;48.128;11.476;2022-08-03T02:46:30;16.60;99.90
12166;DHT22;6146;48.128;11.476;2022-08-03T02:48:59;16.50;99.90
12166;DHT22;6146;48.128;11.476;2022-08-03T02:51:28;16.50;99.90
12166;DHT22;6146;48.128;11.476;2022-08-03T02:53:54;16.50;99.90
12166;DHT22;6146;48.128;11.476;2022-08-03T02:56:21;16.40;99.90
12166;DHT22;6146;48.128;11.476;2022-08-03T02:58:48;16.40;99.90
12166;DHT22;6146;48.128;11.476;2022-08-03T03:01:14;16.40;99.90
12166;DHT22;6146;48.128;11.476;2022-08-03T03:03:41;16.30;99.90
12166;DHT22;6146;48.128;11.476;2022-08-03T03:06:08;16.30;99.90
12166;DHT22;6146;48.128;11.476;2022-08-03T03:08:36;16.30;99.90
12166;DHT22;6146;48.128;11.476;2022-08-03T03:11:01;16.30;99.90
12166;DHT22;6146;48.128;11.476;2022-08-03T03:13:28;16.30;99.90
12166;DHT22;6146;48.128;11.476;2022-08-03T03:15:56;16.30;99.90
12166;DHT22;6146;48.128;11.476;2022-08-03T03:18:24;16.30;99.90
12166;DHT22;6146;48.128;11.476;2022-08-03T03:20:52;16.30;99.90
12166;DHT22;6146;48.128;11.476;2022-08-03T03:23:20;16.30;99.90
12166;DHT22;6146;48.128;11.476;2022-08-03T03:25:46;16.30;99.90
12166;DHT22;6146;48.128;11.476;2022-08-03T03:28:13;16.30;99.90
12166;DHT22;6146;48.128;11.476;2022-08-03T03:30:39;16.30;99.90
12166;DHT22;6146;48.128;11.476;2022-08-03T03:33:04;16.30;99.90
12166;DHT22;6146;48.128;11.476;2022-08-03T03:35:30;16.30;99.90
12166;DHT22;6146;48.128;11.476;2022-08-03T03:37:56;16.30;99.90
12166;DHT22;6146;48.128;11.476;2022-08-03T03:40:22;16.30;99.90
12166;DHT22;6146;48.128;11.476;2022-08-03T03:42:49;16.20;99.90
12166;DHT22;6146;48.128;11.476;2022-08-03T03:45:15;16.30;99.90
12166;DHT22;6146;48.128;11.476;2022-08-03T03:47:41;16.30;99.90
12166;DHT22;6146;48.128;11.476;2022-08-03T03:50:07;16.30;99.90
12166;DHT22;6146;48.128;11.476;2022-08-03T03:52:33;16.30;99.90
12166;DHT22;6146;48.128;11.476;2022-08-03T03:54:59;16.20;99.90
12166;DHT22;6146;48.128;11.476;2022-08-03T03:57:24;16.20;99.90
12166;DHT22;6146;48.128;11.476;2022-08-03T03:59:50;16.20;99.90
12166;DHT22;6146;48.128;11.476;2022-08-03T04:02:16;16.20;99.90
12166;DHT22;6146;48.128;11.476;2022-08-03T04:04:42;16.20;99.90
12166;DHT22;6146;48.128;11.476;2022-08-03T04:07:26;16.20;99.90
12166;DHT22;6146;48.128;11.476;2022-08-03T04:10:20;16.10;99.90
12166;DHT22;6146;48.128;11.476;2022-08-03T04:13:09;16.10;99.90
12166;DHT22;6146;48.128;11.476;2022-08-03T04:15:37;16.10;99.90
12166;DHT22;6146;48.128;11.476;2022-08-03T04:18:07;16.10;99.90
12166;DHT22;6146;48.128;11.476;2022-08-03T04:20:36;16.10;99.90
12166;DHT22;6146;48.128;11.476;2022-08-03T04:23:03;16.10;99.90
12166;DHT22;6146;48.128;11.476;2022-08-03T04:25:33;16.20;99.90
12166;DHT22;6146;48.128;11.476;2022-08-03T04:28:00;16.20;99.90
12166;DHT22;6146;48.128;11.476;2022-08-03T04:30:27;16.20;99.90
12166;DHT22;6146;48.128;11.476;2022-08-03T04:32:55;16.30;99.90
12166;DHT22;6146;48.128;11.476;2022-08-03T04:35:25;16.40;99.90
12166;DHT22;6146;48.128;11.476;2022-08-03T04:37:54;16.50;99.90
12166;DHT22;6146;48.128;11.476;2022-08-03T04:40:32;16.60;99.90
12166;DHT22;6146;48.128;11.476;2022-08-03T04:42:59;16.70;99.90
12166;DHT22;6146;48.128;11.476;2022-08-03T04:45:29;16.80;99.90
12166;DHT22;6146;48.128;11.476;2022-08-03T04:47:56;16.90;99.90
12166;DHT22;6146;48.128;11.476;2022-08-03T04:50:22;16.90;99.90
12166;DHT22;6146;48.128;11.476;2022-08-03T04:52:49;17.10;99.90
12166;DHT22;6146;48.128;11.476;2022-08-03T04:55:27;18.10;99.90
12166;DHT22;6146;48.128;11.476;2022-08-03T04:57:53;19.70;99.90
12166;DHT22;6146;48.128;11.476;2022-08-03T05:00:19;21.30;99.90
12166;DHT22;6146;48.128;11.476;2022-08-03T05:02:45;22.40;99.90
12166;DHT22;6146;48.128;11.476;2022-08-03T05:05:10;23.10;99.90
12166;DHT22;6146;48.128;11.476;2022-08-03T05:07:36;23.40;99.90
12166;DHT22;6146;48.128;11.476;2022-08-03T05:10:06;23.70;99.90
12166;DHT22;6146;48.128;11.476;2022-08-03T05:12:32;24.10;99.90
12166;DHT22;6146;48.128;11.476;2022-08-03T05:14:58;24.50;99.90
12166;DHT22;6146;48.128;11.476;2022-08-03T05:17:24;25.40;99.10
12166;DHT22;6146;48.128;11.476;2022-08-03T05:19:49;26.40;95.90
12166;DHT22;6146;48.128;11.476;2022-08-03T05:22:15;27.40;93.10
12166;DHT22;6146;48.128;11.476;2022-08-03T05:24:40;28.20;90.70
12166;DHT22;6146;48.128;11.476;2022-08-03T05:27:06;29.00;85.10
12166;DHT22;6146;48.128;11.476;2022-08-03T05:29:31;29.50;80.10
12166;DHT22;6146;48.128;11.476;2022-08-03T05:31:57;29.90;76.00
12166;DHT22;6146;48.128;11.476;2022-08-03T05:34:22;30.10;74.70
12166;DHT22;6146;48.128;11.476;2022-08-03T05:36:48;30.50;72.60
12166;DHT22;6146;48.128;11.476;2022-08-03T05:39:13;31.00;69.60
12166;DHT22;6146;48.128;11.476;2022-08-03T05:41:39;31.50;67.70
12166;DHT22;6146;48.128;11.476;2022-08-03T05:44:05;32.30;63.10
12166;DHT22;6146;48.128;11.476;2022-08-03T05:46:30;33.40;59.50
12166;DHT22;6146;48.128;11.476;2022-08-03T05:48:56;34.30;56.20
12166;DHT22;6146;48.128;11.476;2022-08-03T05:51:21;35.10;52.00
12166;DHT22;6146;48.128;11.476;2022-08-03T05:53:47;34.70;51.30
12166;DHT22;6146;48.128;11.476;2022-08-03T05:56:13;34.10;53.20
12166;DHT22;6146;48.128;11.476;2022-08-03T05:58:38;34.10;52.00
12166;DHT22;6146;48.128;11.476;2022-08-03T06:01:04;34.50;52.40
12166;DHT22;6146;48.128;11.476;2022-08-03T06:03:29;35.70;50.00
12166;DHT22;6146;48.128;11.476;2022-08-03T06:05:55;37.00;47.00
12166;DHT22;6146;48.128;11.476;2022-08-03T06:08:21;37.90;44.90
12166;DHT22;6146;48.128;11.476;2022-08-03T06:10:48;38.40;42.20
12166;DHT22;6146;48.128;11.476;2022-08-03T06:13:13;38.20;42.10
12166;DHT22;6146;48.128;11.476;2022-08-03T06:15:39;38.80;40.40
12166;DHT22;6146;48.128;11.476;2022-08-03T06:18:04;39.50;39.70
12166;DHT22;6146;48.128;11.476;2022-08-03T06:20:30;39.60;39.50
12166;DHT22;6146;48.128;11.476;2022-08-03T06:22:56;39.70;38.80
12166;DHT22;6146;48.128;11.476;2022-08-03T06:25:21;39.90;38.30
12166;DHT22;6146;48.128;11.476;2022-08-03T06:27:47;40.30;37.50
12166;DHT22;6146;48.128;11.476;2022-08-03T06:30:13;40.40;37.60
12166;DHT22;6146;48.128;11.476;2022-08-03T06:32:39;40.00;37.50
12166;DHT22;6146;48.128;11.476;2022-08-03T06:35:06;40.30;37.50
12166;DHT22;6146;48.128;11.476;2022-08-03T06:37:44;39.60;38.00
12166;DHT22;6146;48.128;11.476;2022-08-03T06:40:15;39.70;38.50
12166;DHT22;6146;48.128;11.476;2022-08-03T06:42:41;40.30;37.60
12166;DHT22;6146;48.128;11.476;2022-08-03T06:45:07;41.10;36.60
12166;DHT22;6146;48.128;11.476;2022-08-03T06:47:37;41.80;35.30
12166;DHT22;6146;48.128;11.476;2022-08-03T06:50:05;41.10;35.70
12166;DHT22;6146;48.128;11.476;2022-08-03T06:52:31;41.40;35.10
12166;DHT22;6146;48.128;11.476;2022-08-03T06:54:57;41.70;34.60
12166;DHT22;6146;48.128;11.476;2022-08-03T06:57:23;42.40;33.30
12166;DHT22;6146;48.128;11.476;2022-08-03T06:59:49;42.50;33.20
12166;DHT22;6146;48.128;11.476;2022-08-03T07:02:14;42.30;32.60
12166;DHT22;6146;48.128;11.476;2022-08-03T07:04:40;42.30;32.90
12166;DHT22;6146;48.128;11.476;2022-08-03T07:07:05;42.20;32.70
12166;DHT22;6146;48.128;11.476;2022-08-03T07:09:31;42.10;31.60
12166;DHT22;6146;48.128;11.476;2022-08-03T07:11:56;42.70;30.90
12166;DHT22;6146;48.128;11.476;2022-08-03T07:14:23;42.60;31.20
12166;DHT22;6146;48.128;11.476;2022-08-03T07:16:48;41.60;30.60
12166;DHT22;6146;48.128;11.476;2022-08-03T07:19:14;40.50;33.40
12166;DHT22;6146;48.128;11.476;2022-08-03T07:21:40;40.70;33.40
12166;DHT22;6146;48.128;11.476;2022-08-03T07:24:06;40.90;32.20
12166;DHT22;6146;48.128;11.476;2022-08-03T07:26:31;40.50;32.20
12166;DHT22;6146;48.128;11.476;2022-08-03T07:28:57;39.70;33.30
12166;DHT22;6146;48.128;11.476;2022-08-03T07:31:22;39.30;33.70
12166;DHT22;6146;48.128;11.476;2022-08-03T07:33:48;39.10;35.10
12166;DHT22;6146;48.128;11.476;2022-08-03T07:36:13;38.90;34.20
12166;DHT22;6146;48.128;11.476;2022-08-03T07:38:39;37.70;35.70
12166;DHT22;6146;48.128;11.476;2022-08-03T07:41:04;37.90;36.00
12166;DHT22;6146;48.128;11.476;2022-08-03T07:43:30;38.50;35.80
12166;DHT22;6146;48.128;11.476;2022-08-03T07:45:56;39.50;34.70
12166;DHT22;6146;48.128;11.476;2022-08-03T07:48:21;40.40;33.10
12166;DHT22;6146;48.128;11.476;2022-08-03T07:50:47;40.50;32.30
12166;DHT22;6146;48.128;11.476;2022-08-03T07:53:12;39.70;32.30
12166;DHT22;6146;48.128;11.476;2022-08-03T07:55:38;39.30;34.00
12166;DHT22;6146;48.128;11.476;2022-08-03T07:58:06;38.80;33.80
12166;DHT22;6146;48.128;11.476;2022-08-03T08:00:34;39.70;34.10
12166;DHT22;6146;48.128;11.476;2022-08-03T08:03:00;39.90;32.50
12166;DHT22;6146;48.128;11.476;2022-08-03T08:05:26;40.30;32.60
12166;DHT22;6146;48.128;11.476;2022-08-03T08:07:52;40.60;32.30
12166;DHT22;6146;48.128;11.476;2022-08-03T08:10:18;41.00;32.50
12166;DHT22;6146;48.128;11.476;2022-08-03T08:12:44;41.80;31.10
12166;DHT22;6146;48.128;11.476;2022-08-03T08:15:10;42.40;30.90
12166;DHT22;6146;48.128;11.476;2022-08-03T08:17:50;42.70;29.60
12166;DHT22;6146;48.128;11.476;2022-08-03T08:20:21;42.50;29.60
12166;DHT22;6146;48.128;11.476;2022-08-03T08:22:47;42.10;29.80
12166;DHT22;6146;48.128;11.476;2022-08-03T08:25:14;41.30;30.00
12166;DHT22;6146;48.128;11.476;2022-08-03T08:27:47;41.20;30.40
12166;DHT22;6146;48.128;11.476;2022-08-03T08:30:15;41.10;30.70
12166;DHT22;6146;48.128;11.476;2022-08-03T08:32:42;40.50;31.60
12166;DHT22;6146;48.128;11.476;2022-08-03T08:35:08;40.10;32.00
12166;DHT22;6146;48.128;11.476;2022-08-03T08:37:34;39.80;32.70
12166;DHT22;6146;48.128;11.476;2022-08-03T08:40:00;39.80;32.90
12166;DHT22;6146;48.128;11.476;2022-08-03T08:42:26;40.50;32.00
12166;DHT22;6146;48.128;11.476;2022-08-03T08:44:52;40.70;31.20
12166;DHT22;6146;48.128;11.476;2022-08-03T08:47:25;40.00;31.60
12166;DHT22;6146;48.128;11.476;2022-08-03T08:49:53;40.10;32.00
12166;DHT22;6146;48.128;11.476;2022-08-03T08:52:26;40.40;32.00
12166;DHT22;6146;48.128;11.476;2022-08-03T08:54:57;39.00;33.10
12166;DHT22;6146;48.128;11.476;2022-08-03T08:57:32;39.40;34.10
12166;DHT22;6146;48.128;11.476;2022-08-03T08:59:58;39.40;33.50
12166;DHT22;6146;48.128;11.476;2022-08-03T09:02:29;39.60;33.10
12166;DHT22;6146;48.128;11.476;2022-08-03T09:04:55;39.10;33.40
12166;DHT22;6146;48.128;11.476;2022-08-03T09:07:21;39.50;33.60
12166;DHT22;6146;48.128;11.476;2022-08-03T09:09:47;39.90;32.90
12166;DHT22;6146;48.128;11.476;2022-08-03T09:12:14;39.50;32.90
12166;DHT22;6146;48.128;11.476;2022-08-03T09:14:39;39.70;33.60
12166;DHT22;6146;48.128;11.476;2022-08-03T09:17:05;39.20;32.70
12166;DHT22;6146;48.128;11.476;2022-08-03T09:19:33;38.60;33.40
12166;DHT22;6146;48.128;11.476;2022-08-03T09:22:13;38.50;32.90
12166;DHT22;6146;48.128;11.476;2022-08-03T09:24:56;39.30;32.90
12166;DHT22;6146;48.128;11.476;2022-08-03T09:27:22;39.00;31.40
12166;DHT22;6146;48.128;11.476;2022-08-03T09:29:52;38.40;32.90
12166;DHT22;6146;48.128;11.476;2022-08-03T09:32:20;37.70;32.80
12166;DHT22;6146;48.128;11.476;2022-08-03T09:34:47;37.30;33.80
12166;DHT22;6146;48.128;11.476;2022-08-03T09:37:15;37.40;33.80
12166;DHT22;6146;48.128;11.476;2022-08-03T09:39:40;37.50;32.80
12166;DHT22;6146;48.128;11.476;2022-08-03T09:42:11;37.40;33.40
12166;DHT22;6146;48.128;11.476;2022-08-03T09:44:40;38.00;32.40
12166;DHT22;6146;48.128;11.476;2022-08-03T09:47:07;38.90;32.40
12166;DHT22;6146;48.128;11.476;2022-08-03T09:49:34;39.50;30.80
12166;DHT22;6146;48.128;11.476;2022-08-03T09:52:10;39.60;30.30
12166;DHT22;6146;48.128;11.476;2022-08-03T09:54:36;39.10;30.60
12166;DHT22;6146;48.128;11.476;2022-08-03T09:57:02;39.20;30.90
12166;DHT22;6146;48.128;11.476;2022-08-03T09:59:30;40.40;29.50
12166;DHT22;6146;48.128;11.476;2022-08-03T10:01:57;40.90;28.70
12166;DHT22;6146;48.128;11.476;2022-08-03T10:04:24;41.10;28.50
12166;DHT22;6146;48.128;11.476;2022-08-03T10:07:09;41.40;28.80
12166;DHT22;6146;48.128;11.476;2022-08-03T10:09:36;42.00;27.60
12166;DHT22;6146;48.128;11.476;2022-08-03T10:12:10;42.40;27.60
12166;DHT22;6146;48.128;11.476;2022-08-03T10:14:41;41.70;26.20
12166;DHT22;6146;48.128;11.476;2022-08-03T10:17:08;40.70;27.70
12166;DHT22;6146;48.128;11.476;2022-08-03T10:19:34;39.60;27.90
12166;DHT22;6146;48.128;11.476;2022-08-03T10:22:19;38.30;28.30
12166;DHT22;6146;48.128;11.476;2022-08-03T10:24:56;38.40;28.40
12166;DHT22;6146;48.128;11.476;2022-08-03T10:27:24;39.20;29.30
12166;DHT22;6146;48.128;11.476;2022-08-03T10:29:54;39.60;27.80
12166;DHT22;6146;48.128;11.476;2022-08-03T10:32:29;40.00;28.40
12166;DHT22;6146;48.128;11.476;2022-08-03T10:35:04;40.80;27.70
12166;DHT22;6146;48.128;11.476;2022-08-03T10:37:33;41.20;27.10
12166;DHT22;6146;48.128;11.476;2022-08-03T10:40:01;40.70;27.30
12166;DHT22;6146;48.128;11.476;2022-08-03T10:42:28;40.30;29.70
12166;DHT22;6146;48.128;11.476;2022-08-03T10:45:05;40.40;27.30
12166;DHT22;6146;48.128;11.476;2022-08-03T10:47:32;39.40;28.90
12166;DHT22;6146;48.128;11.476;2022-08-03T10:49:59;39.60;29.60
12166;DHT22;6146;48.128;11.476;2022-08-03T10:52:25;39.50;28.80
12166;DHT22;6146;48.128;11.476;2022-08-03T10:54:51;39.90;27.70
12166;DHT22;6146;48.128;11.476;2022-08-03T11:00:11;40.40;26.30
12166;DHT22;6146;48.128;11.476;2022-08-03T11:05:30;40.70;26.10
12166;DHT22;6146;48.128;11.476;2022-08-03T11:10:46;41.90;25.90
12166;DHT22;6146;48.128;11.476;2022-08-03T11:13:15;42.30;24.80
12166;DHT22;6146;48.128;11.476;2022-08-03T11:15:44;42.60;24.10
12166;DHT22;6146;48.128;11.476;2022-08-03T11:18:11;41.60;24.90
12166;DHT22;6146;48.128;11.476;2022-08-03T11:20:57;41.40;25.90
12166;DHT22;6146;48.128;11.476;2022-08-03T11:23:45;41.00;25.70
12166;DHT22;6146;48.128;11.476;2022-08-03T11:26:13;40.60;26.80
12166;DHT22;6146;48.128;11.476;2022-08-03T11:28:40;40.50;26.60
12166;DHT22;6146;48.128;11.476;2022-08-03T11:34:09;39.30;27.30
12166;DHT22;6146;48.128;11.476;2022-08-03T11:39:39;39.90;27.90
12166;DHT22;6146;48.128;11.476;2022-08-03T11:44:56;40.80;26.80
12166;DHT22;6146;48.128;11.476;2022-08-03T11:47:23;40.80;26.80
12166;DHT22;6146;48.128;11.476;2022-08-03T11:49:53;38.90;27.90
12166;DHT22;6146;48.128;11.476;2022-08-03T11:52:19;39.00;28.50
12166;DHT22;6146;48.128;11.476;2022-08-03T11:54:45;39.10;28.00
12166;DHT22;6146;48.128;11.476;2022-08-03T11:57:31;38.60;29.30
12166;DHT22;6146;48.128;11.476;2022-08-03T11:59:57;38.30;29.00
12166;DHT22;6146;48.128;11.476;2022-08-03T12:02:22;38.40;29.30
12166;DHT22;6146;48.128;11.476;2022-08-03T12:04:53;38.70;28.80
12166;DHT22;6146;48.128;11.476;2022-08-03T12:07:22;38.70;28.30
12166;DHT22;6146;48.128;11.476;2022-08-03T12:10:09;38.40;27.90
12166;DHT22;6146;48.128;11.476;2022-08-03T12:12:35;37.60;28.70
12166;DHT22;6146;48.128;11.476;2022-08-03T12:15:02;36.60;29.60
12166;DHT22;6146;48.128;11.476;2022-08-03T12:17:39;36.20;29.50
12166;DHT22;6146;48.128;11.476;2022-08-03T12:20:13;35.90;31.00
12166;DHT22;6146;48.128;11.476;2022-08-03T12:22:44;35.70;32.00
12166;DHT22;6146;48.128;11.476;2022-08-03T12:25:20;35.60;32.10
12166;DHT22;6146;48.128;11.476;2022-08-03T12:27:46;35.20;32.20
12166;DHT22;6146;48.128;11.476;2022-08-03T12:30:12;34.80;32.40
12166;DHT22;6146;48.128;11.476;2022-08-03T12:32:37;34.00;34.10
12166;DHT22;6146;48.128;11.476;2022-08-03T12:35:03;33.80;35.60
12166;DHT22;6146;48.128;11.476;2022-08-03T12:37:30;34.10;34.80
12166;DHT22;6146;48.128;11.476;2022-08-03T12:39:59;34.00;33.60
12166;DHT22;6146;48.128;11.476;2022-08-03T12:42:36;33.70;33.60
12166;DHT22;6146;48.128;11.476;2022-08-03T12:47:55;33.70;32.80
12166;DHT22;6146;48.128;11.476;2022-08-03T12:50:25;33.50;34.90
12166;DHT22;6146;48.128;11.476;2022-08-03T12:52:51;33.60;34.10
12166;DHT22;6146;48.128;11.476;2022-08-03T12:55:21;33.90;33.80
12166;DHT22;6146;48.128;11.476;2022-08-03T12:57:47;33.90;32.90
12166;DHT22;6146;48.128;11.476;2022-08-03T13:00:15;34.00;32.00
12166;DHT22;6146;48.128;11.476;2022-08-03T13:02:42;33.90;34.10
12166;DHT22;6146;48.128;11.476;2022-08-03T13:05:12;34.10;33.50
12166;DHT22;6146;48.128;11.476;2022-08-03T13:07:45;34.20;33.50
12166;DHT22;6146;48.128;11.476;2022-08-03T13:10:15;34.00;32.80
12166;DHT22;6146;48.128;11.476;2022-08-03T13:12:51;33.90;33.20
12166;DHT22;6146;48.128;11.476;2022-08-03T13:15:17;33.80;33.50
12166;DHT22;6146;48.128;11.476;2022-08-03T13:17:43;33.80;33.50
12166;DHT22;6146;48.128;11.476;2022-08-03T13:20:08;33.90;32.50
12166;DHT22;6146;48.128;11.476;2022-08-03T13:22:34;33.50;32.10
12166;DHT22;6146;48.128;11.476;2022-08-03T13:25:01;33.30;33.10
12166;DHT22;6146;48.128;11.476;2022-08-03T13:27:28;33.30;32.60
12166;DHT22;6146;48.128;11.476;2022-08-03T13:29:54;33.40;32.30
12166;DHT22;6146;48.128;11.476;2022-08-03T13:32:21;33.40;32.80
12166;DHT22;6146;48.128;11.476;2022-08-03T13:34:47;33.30;32.00
12166;DHT22;6146;48.128;11.476;2022-08-03T13:37:13;33.10;32.40
12166;DHT22;6146;48.128;11.476;2022-08-03T13:39:39;33.20;34.50
12166;DHT22;6146;48.128;11.476;2022-08-03T13:42:05;33.20;32.30
12166;DHT22;6146;48.128;11.476;2022-08-03T13:44:32;33.30;32.90
12166;DHT22;6146;48.128;11.476;2022-08-03T13:46:57;33.40;30.90
12166;DHT22;6146;48.128;11.476;2022-08-03T13:49:25;33.40;32.20
12166;DHT22;6146;48.128;11.476;2022-08-03T13:51:51;33.50;35.00
12166;DHT22;6146;48.128;11.476;2022-08-03T13:54:16;33.60;31.80
12166;DHT22;6146;48.128;11.476;2022-08-03T13:56:43;33.70;31.40
12166;DHT22;6146;48.128;11.476;2022-08-03T13:59:14;33.60;30.20
12166;DHT22;6146;48.128;11.476;2022-08-03T14:01:40;33.40;30.50
12166;DHT22;6146;48.128;11.476;2022-08-03T14:04:05;32.90;31.40
12166;DHT22;6146;48.128;11.476;2022-08-03T14:06:31;32.80;31.60
12166;DHT22;6146;48.128;11.476;2022-08-03T14:08:56;32.80;32.80
12166;DHT22;6146;48.128;11.476;2022-08-03T14:11:22;32.90;32.30
12166;DHT22;6146;48.128;11.476;2022-08-03T14:13:48;32.70;31.80
12166;DHT22;6146;48.128;11.476;2022-08-03T14:16:13;32.60;32.90
12166;DHT22;6146;48.128;11.476;2022-08-03T14:18:39;32.60;31.90
12166;DHT22;6146;48.128;11.476;2022-08-03T14:21:06;32.70;32.50
12166;DHT22;6146;48.128;11.476;2022-08-03T14:23:33;32.90;33.50
12166;DHT22;6146;48.128;11.476;2022-08-03T14:25:59;33.00;33.10
12166;DHT22;6146;48.128;11.476;2022-08-03T14:28:24;33.10;31.90
12166;DHT22;6146;48.128;11.476;2022-08-03T14:30:51;33.20;32.10
12166;DHT22;6146;48.128;11.476;2022-08-03T14:33:17;33.30;31.70
12166;DHT22;6146;48.128;11.476;2022-08-03T14:35:43;33.40;30.50
12166;DHT22;6146;48.128;11.476;2022-08-03T14:38:08;33.40;31.20
12166;DHT22;6146;48.128;11.476;2022-08-03T14:40:34;33.50;31.60
12166;DHT22;6146;48.128;11.476;2022-08-03T14:43:00;33.40;31.40
12166;DHT22;6146;48.128;11.476;2022-08-03T14:45:26;33.30;31.20
12166;DHT22;6146;48.128;11.476;2022-08-03T14:47:52;33.30;31.20
12166;DHT22;6146;48.128;11.476;2022-08-03T14:50:17;33.30;32.70
12166;DHT22;6146;48.128;11.476;2022-08-03T14:52:43;33.20;33.10
12166;DHT22;6146;48.128;11.476;2022-08-03T14:55:09;33.20;33.90
12166;DHT22;6146;48.128;11.476;2022-08-03T14:57:34;33.10;34.20
12166;DHT22;6146;48.128;11.476;2022-08-03T15:00:00;33.00;34.90
12166;DHT22;6146;48.128;11.476;2022-08-03T15:02:25;32.90;34.80
12166;DHT22;6146;48.128;11.476;2022-08-03T15:04:53;32.90;34.20
12166;DHT22;6146;48.128;11.476;2022-08-03T15:07:18;32.80;35.00
12166;DHT22;6146;48.128;11.476;2022-08-03T15:09:44;32.70;35.40
12166;DHT22;6146;48.128;11.476;2022-08-03T15:12:10;32.60;35.00
12166;DHT22;6146;48.128;11.476;2022-08-03T15:14:35;32.50;35.10
12166;DHT22;6146;48.128;11.476;2022-08-03T15:17:01;32.50;36.00
12166;DHT22;6146;48.128;11.476;2022-08-03T15:19:27;32.60;36.20
12166;DHT22;6146;48.128;11.476;2022-08-03T15:21:52;32.60;34.80
12166;DHT22;6146;48.128;11.476;2022-08-03T15:24:18;32.70;35.20
12166;DHT22;6146;48.128;11.476;2022-08-03T15:26:43;32.70;36.30
12166;DHT22;6146;48.128;11.476;2022-08-03T15:29:09;32.70;35.70
12166;DHT22;6146;48.128;11.476;2022-08-03T15:31:35;32.60;35.80
12166;DHT22;6146;48.128;11.476;2022-08-03T15:34:00;32.50;36.30
12166;DHT22;6146;48.128;11.476;2022-08-03T15:36:26;32.40;35.90
12166;DHT22;6146;48.128;11.476;2022-08-03T15:38:51;32.40;37.50
12166;DHT22;6146;48.128;11.476;2022-08-03T15:41:17;32.40;36.60
12166;DHT22;6146;48.128;11.476;2022-08-03T15:43:44;32.40;37.00
12166;DHT22;6146;48.128;11.476;2022-08-03T15:46:11;32.40;36.00
12166;DHT22;6146;48.128;11.476;2022-08-03T15:48:37;32.50;36.70
12166;DHT22;6146;48.128;11.476;2022-08-03T15:51:04;32.40;34.70
12166;DHT22;6146;48.128;11.476;2022-08-03T15:53:29;32.20;35.50
12166;DHT22;6146;48.128;11.476;2022-08-03T15:55:55;32.10;35.10
12166;DHT22;6146;48.128;11.476;2022-08-03T15:58:20;32.00;35.00
12166;DHT22;6146;48.128;11.476;2022-08-03T16:00:46;32.00;36.70